sensor_id;sensor_type;location;lat;lon;timestamp;P1;durP1;ratioP1;P2;durP2;ratioP2
38487;SDS011;57384;51.986;4.458;2022-12-18T00:00:20;25.02;;;4.90;;
38487;SDS011;57384;51.986;4.458;2022-12-18T00:03:07;16.92;;;5.70;;
38487;SDS011;57384;51.986;4.458;2022-12-18T00:05:57;26.70;;;7.43;;
38487;SDS011;57384;51.986;4.458;2022-12-18T00:08:44;29.83;;;8.00;;
38487;SDS011;57384;51.986;4.458;2022-12-18T00:11:29;20.10;;;6.70;;
38487;SDS011;57384;51.986;4.458;2022-12-18T00:14:16;24.20;;;8.45;;
38487;SDS011;57384;51.986;4.458;2022-12-18T00:17:00;34.70;;;9.35;;
38487;SDS011;57384;51.986;4.458;2022-12-18T00:19:47;26.85;;;9.35;;
38487;SDS011;57384;51.986;4.458;2022-12-18T00:22:31;26.58;;;8.88;;
38487;SDS011;57384;51.986;4.458;2022-12-18T00:25:15;36.53;;;8.13;;
38487;SDS011;57384;51.986;4.458;2022-12-18T00:28:03;16.95;;;4.78;;
38487;SDS011;57384;51.986;4.458;2022-12-18T00:30:47;22.25;;;6.72;;
38487;SDS011;57384;51.986;4.458;2022-12-18T00:33:31;23.10;;;5.93;;
38487;SDS011;57384;51.986;4.458;2022-12-18T00:36:18;28.48;;;8.00;;
38487;SDS011;57384;51.986;4.458;2022-12-18T00:39:04;25.50;;;6.22;;
38487;SDS011;57384;51.986;4.458;2022-12-18T00:41:49;18.00;;;5.38;;
38487;SDS011;57384;51.986;4.458;2022-12-18T00:44:33;26.38;;;6.10;;
38487;SDS011;57384;51.986;4.458;2022-12-18T00:47:23;24.05;;;6.50;;
38487;SDS011;57384;51.986;4.458;2022-12-18T00:50:08;26.77;;;5.20;;
38487;SDS011;57384;51.986;4.458;2022-12-18T00:52:52;19.65;;;6.18;;
38487;SDS011;57384;51.986;4.458;2022-12-18T00:55:37;18.63;;;4.75;;
38487;SDS011;57384;51.986;4.458;2022-12-18T00:58:25;30.90;;;8.27;;
38487;SDS011;57384;51.986;4.458;2022-12-18T01:01:09;29.75;;;7.30;;
38487;SDS011;57384;51.986;4.458;2022-12-18T01:03:53;30.30;;;7.85;;
38487;SDS011;57384;51.986;4.458;2022-12-18T01:06:38;24.40;;;7.95;;
38487;SDS011;57384;51.986;4.458;2022-12-18T01:09:22;25.73;;;7.15;;
38487;SDS011;57384;51.986;4.458;2022-12-18T01:12:06;18.85;;;5.10;;
38487;SDS011;57384;51.986;4.458;2022-12-18T01:14:53;20.48;;;6.20;;
38487;SDS011;57384;51.986;4.458;2022-12-18T01:17:40;24.40;;;6.03;;
38487;SDS011;57384;51.986;4.458;2022-12-18T01:20:31;31.00;;;6.13;;
38487;SDS011;57384;51.986;4.458;2022-12-18T01:23:21;27.50;;;6.72;;
38487;SDS011;57384;51.986;4.458;2022-12-18T01:26:09;16.88;;;4.85;;
38487;SDS011;57384;51.986;4.458;2022-12-18T01:29:09;23.10;;;5.70;;
38487;SDS011;57384;51.986;4.458;2022-12-18T01:32:00;17.60;;;5.18;;
38487;SDS011;57384;51.986;4.458;2022-12-18T01:34:44;28.70;;;6.63;;
38487;SDS011;57384;51.986;4.458;2022-12-18T01:37:28;27.33;;;7.45;;
38487;SDS011;57384;51.986;4.458;2022-12-18T01:40:12;14.20;;;4.78;;
38487;SDS011;57384;51.986;4.458;2022-12-18T01:42:59;26.37;;;7.13;;
38487;SDS011;57384;51.986;4.458;2022-12-18T01:45:43;19.90;;;5.80;;
38487;SDS011;57384;51.986;4.458;2022-12-18T01:48:27;18.10;;;5.20;;
38487;SDS011;57384;51.986;4.458;2022-12-18T01:51:14;31.42;;;8.18;;
38487;SDS011;57384;51.986;4.458;2022-12-18T01:53:59;28.25;;;6.50;;
38487;SDS011;57384;51.986;4.458;2022-12-18T01:56:43;26.38;;;7.15;;
38487;SDS011;57384;51.986;4.458;2022-12-18T01:59:27;14.50;;;3.50;;
38487;SDS011;57384;51.986;4.458;2022-12-18T02:02:15;15.57;;;3.83;;
38487;SDS011;57384;51.986;4.458;2022-12-18T02:05:02;19.20;;;6.13;;
38487;SDS011;57384;51.986;4.458;2022-12-18T02:10:43;30.30;;;6.22;;
38487;SDS011;57384;51.986;4.458;2022-12-18T02:13:32;16.83;;;5.03;;
38487;SDS011;57384;51.986;4.458;2022-12-18T02:17:30;15.88;;;5.80;;
38487;SDS011;57384;51.986;4.458;2022-12-18T02:23:01;18.98;;;4.57;;
38487;SDS011;57384;51.986;4.458;2022-12-18T02:28:58;18.33;;;6.60;;
38487;SDS011;57384;51.986;4.458;2022-12-18T02:31:49;34.70;;;8.77;;
38487;SDS011;57384;51.986;4.458;2022-12-18T02:34:38;24.83;;;7.47;;
38487;SDS011;57384;51.986;4.458;2022-12-18T02:37:24;25.47;;;5.57;;
38487;SDS011;57384;51.986;4.458;2022-12-18T02:40:10;25.60;;;7.10;;
38487;SDS011;57384;51.986;4.458;2022-12-18T02:43:14;22.20;;;5.65;;
38487;SDS011;57384;51.986;4.458;2022-12-18T02:45:59;17.42;;;6.57;;
38487;SDS011;57384;51.986;4.458;2022-12-18T02:49:06;30.35;;;7.85;;
38487;SDS011;57384;51.986;4.458;2022-12-18T02:55:15;23.90;;;5.53;;
38487;SDS011;57384;51.986;4.458;2022-12-18T03:01:38;21.45;;;6.25;;
38487;SDS011;57384;51.986;4.458;2022-12-18T03:04:47;31.42;;;6.10;;
38487;SDS011;57384;51.986;4.458;2022-12-18T03:07:55;19.92;;;5.30;;
38487;SDS011;57384;51.986;4.458;2022-12-18T03:11:02;27.20;;;5.82;;
38487;SDS011;57384;51.986;4.458;2022-12-18T03:13:53;19.17;;;5.00;;
38487;SDS011;57384;51.986;4.458;2022-12-18T03:16:43;16.02;;;4.03;;
38487;SDS011;57384;51.986;4.458;2022-12-18T03:19:31;17.67;;;6.28;;
38487;SDS011;57384;51.986;4.458;2022-12-18T03:22:18;13.93;;;5.57;;
38487;SDS011;57384;51.986;4.458;2022-12-18T03:25:07;27.50;;;7.57;;
38487;SDS011;57384;51.986;4.458;2022-12-18T03:27:55;23.15;;;5.18;;
38487;SDS011;57384;51.986;4.458;2022-12-18T03:30:43;16.27;;;4.80;;
38487;SDS011;57384;51.986;4.458;2022-12-18T03:33:52;18.38;;;4.95;;
38487;SDS011;57384;51.986;4.458;2022-12-18T03:36:38;16.55;;;4.72;;
38487;SDS011;57384;51.986;4.458;2022-12-18T03:39:23;20.35;;;6.20;;
38487;SDS011;57384;51.986;4.458;2022-12-18T03:45:20;21.08;;;5.05;;
38487;SDS011;57384;51.986;4.458;2022-12-18T03:51:05;12.70;;;4.95;;
38487;SDS011;57384;51.986;4.458;2022-12-18T03:53:58;14.18;;;5.72;;
38487;SDS011;57384;51.986;4.458;2022-12-18T03:56:47;22.08;;;4.60;;
38487;SDS011;57384;51.986;4.458;2022-12-18T03:59:38;22.23;;;5.28;;
38487;SDS011;57384;51.986;4.458;2022-12-18T04:02:26;15.73;;;3.95;;
38487;SDS011;57384;51.986;4.458;2022-12-18T04:05:12;18.63;;;5.70;;
38487;SDS011;57384;51.986;4.458;2022-12-18T04:07:57;12.57;;;4.35;;
38487;SDS011;57384;51.986;4.458;2022-12-18T04:10:44;14.10;;;3.40;;
38487;SDS011;57384;51.986;4.458;2022-12-18T04:13:29;18.70;;;4.75;;
38487;SDS011;57384;51.986;4.458;2022-12-18T04:16:17;21.58;;;5.95;;
38487;SDS011;57384;51.986;4.458;2022-12-18T04:19:01;12.27;;;5.28;;
38487;SDS011;57384;51.986;4.458;2022-12-18T04:21:48;29.97;;;5.73;;
38487;SDS011;57384;51.986;4.458;2022-12-18T04:24:32;14.25;;;5.78;;
38487;SDS011;57384;51.986;4.458;2022-12-18T04:27:18;22.80;;;4.00;;
38487;SDS011;57384;51.986;4.458;2022-12-18T04:30:02;11.57;;;3.03;;
38487;SDS011;57384;51.986;4.458;2022-12-18T04:32:47;13.02;;;4.00;;
38487;SDS011;57384;51.986;4.458;2022-12-18T04:35:37;23.23;;;6.03;;
38487;SDS011;57384;51.986;4.458;2022-12-18T04:38:22;14.88;;;4.03;;
38487;SDS011;57384;51.986;4.458;2022-12-18T04:41:06;17.77;;;3.75;;
38487;SDS011;57384;51.986;4.458;2022-12-18T04:43:51;28.02;;;5.88;;
38487;SDS011;57384;51.986;4.458;2022-12-18T04:46:35;23.60;;;6.63;;
38487;SDS011;57384;51.986;4.458;2022-12-18T04:49:19;16.80;;;4.90;;
38487;SDS011;57384;51.986;4.458;2022-12-18T04:52:03;20.77;;;3.78;;
38487;SDS011;57384;51.986;4.458;2022-12-18T04:54:50;21.85;;;4.40;;
38487;SDS011;57384;51.986;4.458;2022-12-18T04:57:43;18.30;;;3.42;;
38487;SDS011;57384;51.986;4.458;2022-12-18T05:00:47;10.05;;;3.72;;
38487;SDS011;57384;51.986;4.458;2022-12-18T05:03:31;14.73;;;4.68;;
38487;SDS011;57384;51.986;4.458;2022-12-18T05:06:15;14.52;;;4.63;;
38487;SDS011;57384;51.986;4.458;2022-12-18T05:08:59;15.85;;;4.18;;
38487;SDS011;57384;51.986;4.458;2022-12-18T05:11:47;18.70;;;3.58;;
38487;SDS011;57384;51.986;4.458;2022-12-18T05:14:31;14.93;;;4.05;;
38487;SDS011;57384;51.986;4.458;2022-12-18T05:17:15;14.50;;;3.75;;
38487;SDS011;57384;51.986;4.458;2022-12-18T05:20:00;15.93;;;4.20;;
38487;SDS011;57384;51.986;4.458;2022-12-18T05:22:44;10.35;;;2.42;;
38487;SDS011;57384;51.986;4.458;2022-12-18T05:25:28;16.33;;;5.50;;
38487;SDS011;57384;51.986;4.458;2022-12-18T05:28:12;20.13;;;6.53;;
38487;SDS011;57384;51.986;4.458;2022-12-18T05:30:57;14.38;;;5.78;;
38487;SDS011;57384;51.986;4.458;2022-12-18T05:33:42;15.43;;;4.57;;
38487;SDS011;57384;51.986;4.458;2022-12-18T05:36:26;15.27;;;4.20;;
38487;SDS011;57384;51.986;4.458;2022-12-18T05:39:10;18.40;;;4.05;;
38487;SDS011;57384;51.986;4.458;2022-12-18T05:41:54;11.38;;;4.35;;
38487;SDS011;57384;51.986;4.458;2022-12-18T05:44:38;16.85;;;4.25;;
38487;SDS011;57384;51.986;4.458;2022-12-18T05:47:22;13.80;;;4.47;;
38487;SDS011;57384;51.986;4.458;2022-12-18T05:50:07;12.18;;;3.33;;
38487;SDS011;57384;51.986;4.458;2022-12-18T05:52:57;9.20;;;3.17;;
38487;SDS011;57384;51.986;4.458;2022-12-18T05:55:48;24.50;;;5.97;;
38487;SDS011;57384;51.986;4.458;2022-12-18T05:58:32;9.25;;;2.25;;
38487;SDS011;57384;51.986;4.458;2022-12-18T06:01:18;22.35;;;3.95;;
38487;SDS011;57384;51.986;4.458;2022-12-18T06:04:05;10.82;;;3.13;;
38487;SDS011;57384;51.986;4.458;2022-12-18T06:06:49;8.63;;;3.15;;
38487;SDS011;57384;51.986;4.458;2022-12-18T06:09:34;11.98;;;3.75;;
38487;SDS011;57384;51.986;4.458;2022-12-18T06:12:18;14.65;;;3.92;;
38487;SDS011;57384;51.986;4.458;2022-12-18T06:15:08;9.20;;;3.17;;
38487;SDS011;57384;51.986;4.458;2022-12-18T06:17:52;17.95;;;4.78;;
38487;SDS011;57384;51.986;4.458;2022-12-18T06:20:41;14.98;;;3.50;;
38487;SDS011;57384;51.986;4.458;2022-12-18T06:23:26;16.27;;;5.20;;
38487;SDS011;57384;51.986;4.458;2022-12-18T06:26:10;16.77;;;4.65;;
38487;SDS011;57384;51.986;4.458;2022-12-18T06:28:56;11.30;;;4.07;;
38487;SDS011;57384;51.986;4.458;2022-12-18T06:31:40;14.18;;;5.15;;
38487;SDS011;57384;51.986;4.458;2022-12-18T06:34:24;14.13;;;5.90;;
38487;SDS011;57384;51.986;4.458;2022-12-18T06:37:08;8.27;;;3.38;;
38487;SDS011;57384;51.986;4.458;2022-12-18T06:39:53;15.85;;;4.43;;
38487;SDS011;57384;51.986;4.458;2022-12-18T06:42:37;6.60;;;2.08;;
38487;SDS011;57384;51.986;4.458;2022-12-18T06:45:22;15.43;;;3.65;;
38487;SDS011;57384;51.986;4.458;2022-12-18T06:48:07;8.75;;;2.65;;
38487;SDS011;57384;51.986;4.458;2022-12-18T06:50:51;10.07;;;2.53;;
38487;SDS011;57384;51.986;4.458;2022-12-18T06:53:35;10.80;;;2.22;;
38487;SDS011;57384;51.986;4.458;2022-12-18T06:56:19;5.88;;;2.95;;
38487;SDS011;57384;51.986;4.458;2022-12-18T06:59:03;16.70;;;4.78;;
38487;SDS011;57384;51.986;4.458;2022-12-18T07:01:47;11.23;;;3.90;;
38487;SDS011;57384;51.986;4.458;2022-12-18T07:04:34;19.38;;;5.63;;
38487;SDS011;57384;51.986;4.458;2022-12-18T07:07:22;13.35;;;2.38;;
38487;SDS011;57384;51.986;4.458;2022-12-18T07:10:07;21.92;;;6.05;;
38487;SDS011;57384;51.986;4.458;2022-12-18T07:12:52;11.57;;;4.55;;
38487;SDS011;57384;51.986;4.458;2022-12-18T07:15:36;7.85;;;2.75;;
38487;SDS011;57384;51.986;4.458;2022-12-18T07:18:23;6.40;;;2.38;;
38487;SDS011;57384;51.986;4.458;2022-12-18T07:21:08;16.63;;;1.70;;
38487;SDS011;57384;51.986;4.458;2022-12-18T07:23:54;12.20;;;2.63;;
38487;SDS011;57384;51.986;4.458;2022-12-18T07:26:39;4.75;;;1.83;;
38487;SDS011;57384;51.986;4.458;2022-12-18T07:29:23;10.38;;;3.45;;
38487;SDS011;57384;51.986;4.458;2022-12-18T07:32:07;11.40;;;5.10;;
38487;SDS011;57384;51.986;4.458;2022-12-18T07:34:51;14.63;;;3.17;;
38487;SDS011;57384;51.986;4.458;2022-12-18T07:37:35;8.55;;;2.72;;
38487;SDS011;57384;51.986;4.458;2022-12-18T07:40:20;4.78;;;1.55;;
38487;SDS011;57384;51.986;4.458;2022-12-18T07:43:04;4.65;;;1.55;;
38487;SDS011;57384;51.986;4.458;2022-12-18T07:45:48;7.70;;;2.63;;
38487;SDS011;57384;51.986;4.458;2022-12-18T07:48:33;5.95;;;2.17;;
38487;SDS011;57384;51.986;4.458;2022-12-18T07:51:17;4.90;;;2.03;;
38487;SDS011;57384;51.986;4.458;2022-12-18T07:54:02;4.75;;;2.15;;
38487;SDS011;57384;51.986;4.458;2022-12-18T07:56:46;11.75;;;3.75;;
38487;SDS011;57384;51.986;4.458;2022-12-18T07:59:30;13.02;;;3.72;;
38487;SDS011;57384;51.986;4.458;2022-12-18T08:02:14;11.57;;;3.75;;
38487;SDS011;57384;51.986;4.458;2022-12-18T08:04:59;9.93;;;2.72;;
38487;SDS011;57384;51.986;4.458;2022-12-18T08:07:43;9.38;;;2.75;;
38487;SDS011;57384;51.986;4.458;2022-12-18T08:10:27;4.63;;;1.13;;
38487;SDS011;57384;51.986;4.458;2022-12-18T08:13:11;7.75;;;1.80;;
38487;SDS011;57384;51.986;4.458;2022-12-18T08:15:55;7.38;;;0.95;;
38487;SDS011;57384;51.986;4.458;2022-12-18T08:18:43;9.75;;;2.63;;
38487;SDS011;57384;51.986;4.458;2022-12-18T08:21:28;9.73;;;2.53;;
38487;SDS011;57384;51.986;4.458;2022-12-18T08:24:14;8.32;;;2.72;;
38487;SDS011;57384;51.986;4.458;2022-12-18T08:26:58;8.82;;;2.28;;
38487;SDS011;57384;51.986;4.458;2022-12-18T08:29:42;12.50;;;3.97;;
38487;SDS011;57384;51.986;4.458;2022-12-18T08:32:26;7.50;;;2.75;;
38487;SDS011;57384;51.986;4.458;2022-12-18T08:35:11;7.40;;;1.73;;
38487;SDS011;57384;51.986;4.458;2022-12-18T08:37:55;10.35;;;1.65;;
38487;SDS011;57384;51.986;4.458;2022-12-18T08:40:41;11.02;;;2.25;;
38487;SDS011;57384;51.986;4.458;2022-12-18T08:43:26;6.28;;;2.25;;
38487;SDS011;57384;51.986;4.458;2022-12-18T08:46:13;26.95;;;2.75;;
38487;SDS011;57384;51.986;4.458;2022-12-18T08:49:03;9.40;;;2.88;;
38487;SDS011;57384;51.986;4.458;2022-12-18T08:51:53;6.47;;;1.48;;
38487;SDS011;57384;51.986;4.458;2022-12-18T08:54:38;6.20;;;2.05;;
38487;SDS011;57384;51.986;4.458;2022-12-18T08:57:25;8.25;;;2.47;;
38487;SDS011;57384;51.986;4.458;2022-12-18T09:00:10;7.00;;;2.30;;
38487;SDS011;57384;51.986;4.458;2022-12-18T09:02:54;10.40;;;3.25;;
38487;SDS011;57384;51.986;4.458;2022-12-18T09:05:41;9.10;;;2.03;;
38487;SDS011;57384;51.986;4.458;2022-12-18T09:08:29;6.70;;;1.77;;
38487;SDS011;57384;51.986;4.458;2022-12-18T09:11:15;6.07;;;2.28;;
38487;SDS011;57384;51.986;4.458;2022-12-18T09:14:08;9.85;;;1.95;;
38487;SDS011;57384;51.986;4.458;2022-12-18T09:16:53;12.88;;;3.08;;
38487;SDS011;57384;51.986;4.458;2022-12-18T09:19:37;7.25;;;1.70;;
38487;SDS011;57384;51.986;4.458;2022-12-18T09:22:22;4.57;;;1.73;;
38487;SDS011;57384;51.986;4.458;2022-12-18T09:25:06;8.52;;;3.05;;
38487;SDS011;57384;51.986;4.458;2022-12-18T09:27:50;9.95;;;2.40;;
38487;SDS011;57384;51.986;4.458;2022-12-18T09:30:55;9.18;;;2.10;;
38487;SDS011;57384;51.986;4.458;2022-12-18T09:33:39;11.73;;;3.33;;
38487;SDS011;57384;51.986;4.458;2022-12-18T09:36:32;11.82;;;2.72;;
38487;SDS011;57384;51.986;4.458;2022-12-18T09:39:28;14.20;;;3.33;;
38487;SDS011;57384;51.986;4.458;2022-12-18T09:42:17;7.30;;;1.65;;
38487;SDS011;57384;51.986;4.458;2022-12-18T09:45:05;5.95;;;1.20;;
38487;SDS011;57384;51.986;4.458;2022-12-18T09:47:56;7.65;;;1.80;;
38487;SDS011;57384;51.986;4.458;2022-12-18T09:50:44;5.80;;;2.25;;
38487;SDS011;57384;51.986;4.458;2022-12-18T09:53:35;9.57;;;1.90;;
38487;SDS011;57384;51.986;4.458;2022-12-18T09:56:25;6.57;;;2.00;;
38487;SDS011;57384;51.986;4.458;2022-12-18T09:59:26;6.32;;;3.20;;
38487;SDS011;57384;51.986;4.458;2022-12-18T10:02:24;4.47;;;1.95;;
38487;SDS011;57384;51.986;4.458;2022-12-18T10:05:17;8.68;;;2.78;;
38487;SDS011;57384;51.986;4.458;2022-12-18T10:11:03;8.80;;;2.45;;
38487;SDS011;57384;51.986;4.458;2022-12-18T10:20:32;7.65;;;2.13;;
38487;SDS011;57384;51.986;4.458;2022-12-18T10:26:47;9.45;;;3.35;;
38487;SDS011;57384;51.986;4.458;2022-12-18T10:29:31;12.18;;;2.47;;
38487;SDS011;57384;51.986;4.458;2022-12-18T10:32:16;10.60;;;2.95;;
38487;SDS011;57384;51.986;4.458;2022-12-18T10:35:16;2.97;;;1.60;;
38487;SDS011;57384;51.986;4.458;2022-12-18T10:47:17;5.38;;;2.15;;
38487;SDS011;57384;51.986;4.458;2022-12-18T10:50:03;11.45;;;2.15;;
38487;SDS011;57384;51.986;4.458;2022-12-18T10:52:53;11.52;;;2.65;;
38487;SDS011;57384;51.986;4.458;2022-12-18T10:55:43;9.65;;;2.45;;
38487;SDS011;57384;51.986;4.458;2022-12-18T10:58:30;17.33;;;2.67;;
38487;SDS011;57384;51.986;4.458;2022-12-18T11:01:20;9.15;;;2.15;;
38487;SDS011;57384;51.986;4.458;2022-12-18T11:06:54;12.05;;;2.47;;
38487;SDS011;57384;51.986;4.458;2022-12-18T11:09:42;8.05;;;2.25;;
38487;SDS011;57384;51.986;4.458;2022-12-18T11:12:27;9.32;;;2.20;;
38487;SDS011;57384;51.986;4.458;2022-12-18T11:15:20;9.80;;;2.33;;
38487;SDS011;57384;51.986;4.458;2022-12-18T11:18:15;11.75;;;2.38;;
38487;SDS011;57384;51.986;4.458;2022-12-18T11:21:18;11.20;;;2.83;;
38487;SDS011;57384;51.986;4.458;2022-12-18T11:24:07;15.13;;;3.22;;
38487;SDS011;57384;51.986;4.458;2022-12-18T11:27:19;11.60;;;2.13;;
38487;SDS011;57384;51.986;4.458;2022-12-18T11:30:07;8.18;;;2.30;;
38487;SDS011;57384;51.986;4.458;2022-12-18T11:33:19;3.53;;;1.80;;
38487;SDS011;57384;51.986;4.458;2022-12-18T11:36:05;14.00;;;3.85;;
38487;SDS011;57384;51.986;4.458;2022-12-18T11:38:52;8.32;;;2.47;;
38487;SDS011;57384;51.986;4.458;2022-12-18T11:42:01;7.68;;;2.65;;
38487;SDS011;57384;51.986;4.458;2022-12-18T11:54:58;12.65;;;3.22;;
38487;SDS011;57384;51.986;4.458;2022-12-18T11:58:07;6.95;;;2.45;;
38487;SDS011;57384;51.986;4.458;2022-12-18T12:04:33;7.10;;;2.80;;
38487;SDS011;57384;51.986;4.458;2022-12-18T12:10:30;6.18;;;1.63;;
38487;SDS011;57384;51.986;4.458;2022-12-18T12:16:56;9.85;;;2.97;;
38487;SDS011;57384;51.986;4.458;2022-12-18T12:19:53;5.47;;;1.73;;
38487;SDS011;57384;51.986;4.458;2022-12-18T12:26:03;9.63;;;2.25;;
38487;SDS011;57384;51.986;4.458;2022-12-18T12:28:56;8.88;;;2.80;;
38487;SDS011;57384;51.986;4.458;2022-12-18T12:32:22;7.90;;;2.50;;
38487;SDS011;57384;51.986;4.458;2022-12-18T12:35:25;9.80;;;2.53;;
38487;SDS011;57384;51.986;4.458;2022-12-18T12:38:25;7.68;;;1.77;;
38487;SDS011;57384;51.986;4.458;2022-12-18T12:41:18;9.73;;;2.70;;
38487;SDS011;57384;51.986;4.458;2022-12-18T12:44:08;9.20;;;2.65;;
38487;SDS011;57384;51.986;4.458;2022-12-18T12:47:05;7.95;;;2.58;;
38487;SDS011;57384;51.986;4.458;2022-12-18T12:49:57;9.43;;;2.50;;
38487;SDS011;57384;51.986;4.458;2022-12-18T12:52:45;9.85;;;3.65;;
38487;SDS011;57384;51.986;4.458;2022-12-18T12:55:37;11.30;;;3.08;;
38487;SDS011;57384;51.986;4.458;2022-12-18T12:58:26;10.48;;;3.17;;
38487;SDS011;57384;51.986;4.458;2022-12-18T13:04:08;10.13;;;3.95;;
38487;SDS011;57384;51.986;4.458;2022-12-18T13:13:15;7.15;;;3.50;;
38487;SDS011;57384;51.986;4.458;2022-12-18T13:16:09;10.48;;;3.42;;
38487;SDS011;57384;51.986;4.458;2022-12-18T13:18:53;11.43;;;3.30;;
38487;SDS011;57384;51.986;4.458;2022-12-18T13:21:39;8.67;;;2.80;;
38487;SDS011;57384;51.986;4.458;2022-12-18T13:24:27;9.82;;;2.72;;
38487;SDS011;57384;51.986;4.458;2022-12-18T13:44:48;11.73;;;3.03;;
38487;SDS011;57384;51.986;4.458;2022-12-18T13:47:36;7.90;;;2.50;;
38487;SDS011;57384;51.986;4.458;2022-12-18T13:50:27;14.85;;;3.22;;
38487;SDS011;57384;51.986;4.458;2022-12-18T13:53:21;14.35;;;4.95;;
38487;SDS011;57384;51.986;4.458;2022-12-18T13:56:14;9.32;;;3.63;;
38487;SDS011;57384;51.986;4.458;2022-12-18T14:01:59;11.73;;;2.35;;
38487;SDS011;57384;51.986;4.458;2022-12-18T14:04:51;11.98;;;4.40;;
38487;SDS011;57384;51.986;4.458;2022-12-18T14:07:38;10.55;;;2.55;;
38487;SDS011;57384;51.986;4.458;2022-12-18T14:10:22;8.80;;;2.08;;
38487;SDS011;57384;51.986;4.458;2022-12-18T14:13:08;8.88;;;3.30;;
38487;SDS011;57384;51.986;4.458;2022-12-18T14:15:54;10.70;;;2.80;;
38487;SDS011;57384;51.986;4.458;2022-12-18T14:18:48;12.73;;;3.97;;
38487;SDS011;57384;51.986;4.458;2022-12-18T14:21:37;16.00;;;3.10;;
38487;SDS011;57384;51.986;4.458;2022-12-18T14:24:31;9.02;;;2.22;;
38487;SDS011;57384;51.986;4.458;2022-12-18T14:27:23;5.55;;;2.58;;
38487;SDS011;57384;51.986;4.458;2022-12-18T14:33:28;15.45;;;3.95;;
38487;SDS011;57384;51.986;4.458;2022-12-18T14:36:27;11.70;;;3.60;;
38487;SDS011;57384;51.986;4.458;2022-12-18T14:39:16;12.25;;;3.45;;
38487;SDS011;57384;51.986;4.458;2022-12-18T14:42:01;8.95;;;2.33;;
38487;SDS011;57384;51.986;4.458;2022-12-18T14:44:45;14.13;;;4.22;;
38487;SDS011;57384;51.986;4.458;2022-12-18T14:47:29;10.35;;;2.53;;
38487;SDS011;57384;51.986;4.458;2022-12-18T14:50:14;9.68;;;3.17;;
38487;SDS011;57384;51.986;4.458;2022-12-18T14:52:58;11.00;;;3.65;;
38487;SDS011;57384;51.986;4.458;2022-12-18T14:55:46;5.40;;;1.67;;
38487;SDS011;57384;51.986;4.458;2022-12-18T14:58:31;8.55;;;2.33;;
38487;SDS011;57384;51.986;4.458;2022-12-18T15:01:23;9.80;;;3.25;;
38487;SDS011;57384;51.986;4.458;2022-12-18T15:04:46;8.75;;;2.42;;
38487;SDS011;57384;51.986;4.458;2022-12-18T15:07:24;9.27;;;2.72;;
38487;SDS011;57384;51.986;4.458;2022-12-18T15:13:30;6.15;;;2.13;;
38487;SDS011;57384;51.986;4.458;2022-12-18T15:16:19;7.65;;;2.58;;
38487;SDS011;57384;51.986;4.458;2022-12-18T15:19:04;5.20;;;2.28;;
38487;SDS011;57384;51.986;4.458;2022-12-18T15:21:51;8.77;;;3.38;;
38487;SDS011;57384;51.986;4.458;2022-12-18T15:24:35;10.10;;;2.38;;
38487;SDS011;57384;51.986;4.458;2022-12-18T15:27:25;10.88;;;2.45;;
38487;SDS011;57384;51.986;4.458;2022-12-18T15:33:16;11.98;;;2.63;;
38487;SDS011;57384;51.986;4.458;2022-12-18T15:36:09;12.93;;;3.58;;
38487;SDS011;57384;51.986;4.458;2022-12-18T15:38:55;9.20;;;3.27;;
38487;SDS011;57384;51.986;4.458;2022-12-18T15:41:40;13.40;;;3.20;;
38487;SDS011;57384;51.986;4.458;2022-12-18T15:44:24;12.02;;;3.17;;
38487;SDS011;57384;51.986;4.458;2022-12-18T15:47:11;9.68;;;1.85;;
38487;SDS011;57384;51.986;4.458;2022-12-18T15:49:56;7.80;;;2.67;;
38487;SDS011;57384;51.986;4.458;2022-12-18T15:52:43;8.80;;;2.13;;
38487;SDS011;57384;51.986;4.458;2022-12-18T15:55:29;13.50;;;3.63;;
38487;SDS011;57384;51.986;4.458;2022-12-18T15:58:13;10.90;;;3.28;;
38487;SDS011;57384;51.986;4.458;2022-12-18T16:00:58;4.05;;;1.55;;
38487;SDS011;57384;51.986;4.458;2022-12-18T16:03:43;6.60;;;2.20;;
38487;SDS011;57384;51.986;4.458;2022-12-18T16:06:27;10.68;;;2.42;;
38487;SDS011;57384;51.986;4.458;2022-12-18T16:09:11;9.73;;;2.10;;
38487;SDS011;57384;51.986;4.458;2022-12-18T16:11:55;10.40;;;3.08;;
38487;SDS011;57384;51.986;4.458;2022-12-18T16:14:39;9.05;;;2.67;;
38487;SDS011;57384;51.986;4.458;2022-12-18T16:17:35;9.45;;;3.65;;
38487;SDS011;57384;51.986;4.458;2022-12-18T16:20:20;16.10;;;3.40;;
38487;SDS011;57384;51.986;4.458;2022-12-18T16:23:05;11.43;;;3.75;;
38487;SDS011;57384;51.986;4.458;2022-12-18T16:25:49;9.93;;;2.17;;
38487;SDS011;57384;51.986;4.458;2022-12-18T16:28:33;11.93;;;2.88;;
38487;SDS011;57384;51.986;4.458;2022-12-18T16:31:17;10.55;;;3.15;;
38487;SDS011;57384;51.986;4.458;2022-12-18T16:37:03;12.65;;;3.05;;
38487;SDS011;57384;51.986;4.458;2022-12-18T16:39:49;7.50;;;2.40;;
38487;SDS011;57384;51.986;4.458;2022-12-18T16:42:33;7.18;;;3.05;;
38487;SDS011;57384;51.986;4.458;2022-12-18T16:45:22;20.52;;;4.43;;
38487;SDS011;57384;51.986;4.458;2022-12-18T16:48:06;8.43;;;3.00;;
38487;SDS011;57384;51.986;4.458;2022-12-18T16:50:51;12.90;;;4.57;;
38487;SDS011;57384;51.986;4.458;2022-12-18T16:53:43;11.32;;;3.45;;
38487;SDS011;57384;51.986;4.458;2022-12-18T16:56:27;13.10;;;4.78;;
38487;SDS011;57384;51.986;4.458;2022-12-18T16:59:11;13.73;;;3.85;;
38487;SDS011;57384;51.986;4.458;2022-12-18T17:01:55;9.57;;;3.08;;
38487;SDS011;57384;51.986;4.458;2022-12-18T17:04:40;9.82;;;2.83;;
38487;SDS011;57384;51.986;4.458;2022-12-18T17:07:24;11.48;;;3.92;;
38487;SDS011;57384;51.986;4.458;2022-12-18T17:10:09;12.90;;;3.33;;
38487;SDS011;57384;51.986;4.458;2022-12-18T17:12:53;11.38;;;3.47;;
38487;SDS011;57384;51.986;4.458;2022-12-18T17:15:37;13.13;;;3.30;;
38487;SDS011;57384;51.986;4.458;2022-12-18T17:18:21;8.80;;;3.42;;
38487;SDS011;57384;51.986;4.458;2022-12-18T17:21:05;7.90;;;2.75;;
38487;SDS011;57384;51.986;4.458;2022-12-18T17:23:53;13.82;;;3.92;;
38487;SDS011;57384;51.986;4.458;2022-12-18T17:26:37;9.85;;;3.38;;
38487;SDS011;57384;51.986;4.458;2022-12-18T17:29:25;11.93;;;3.03;;
38487;SDS011;57384;51.986;4.458;2022-12-18T17:32:13;13.07;;;4.22;;
38487;SDS011;57384;51.986;4.458;2022-12-18T17:35:05;12.10;;;4.13;;
38487;SDS011;57384;51.986;4.458;2022-12-18T17:37:49;12.10;;;2.83;;
38487;SDS011;57384;51.986;4.458;2022-12-18T17:40:34;10.15;;;3.53;;
38487;SDS011;57384;51.986;4.458;2022-12-18T17:43:24;10.82;;;3.15;;
38487;SDS011;57384;51.986;4.458;2022-12-18T17:46:12;15.30;;;3.92;;
38487;SDS011;57384;51.986;4.458;2022-12-18T17:48:57;14.13;;;3.97;;
38487;SDS011;57384;51.986;4.458;2022-12-18T17:51:48;11.80;;;3.03;;
38487;SDS011;57384;51.986;4.458;2022-12-18T17:54:32;12.77;;;3.92;;
38487;SDS011;57384;51.986;4.458;2022-12-18T17:57:16;10.93;;;3.15;;
38487;SDS011;57384;51.986;4.458;2022-12-18T18:00:00;13.05;;;3.88;;
38487;SDS011;57384;51.986;4.458;2022-12-18T18:02:45;13.30;;;4.55;;
38487;SDS011;57384;51.986;4.458;2022-12-18T18:05:29;9.18;;;4.65;;
38487;SDS011;57384;51.986;4.458;2022-12-18T18:08:13;11.95;;;3.38;;
38487;SDS011;57384;51.986;4.458;2022-12-18T18:10:57;12.18;;;3.92;;
38487;SDS011;57384;51.986;4.458;2022-12-18T18:13:49;11.70;;;3.70;;
38487;SDS011;57384;51.986;4.458;2022-12-18T18:16:37;14.52;;;4.78;;
38487;SDS011;57384;51.986;4.458;2022-12-18T18:19:24;14.82;;;4.20;;
38487;SDS011;57384;51.986;4.458;2022-12-18T18:22:08;15.15;;;4.45;;
38487;SDS011;57384;51.986;4.458;2022-12-18T18:24:52;16.02;;;4.53;;
38487;SDS011;57384;51.986;4.458;2022-12-18T18:27:36;14.35;;;5.70;;
38487;SDS011;57384;51.986;4.458;2022-12-18T18:30:21;18.25;;;4.00;;
38487;SDS011;57384;51.986;4.458;2022-12-18T18:33:08;11.25;;;3.22;;